Time;durP1;ratioP1;P1;durP2;ratioP2;P2;SDS_P1;SDS_P2;PMS_P1;PMS_P2;Temp;Humidity;BMP_temperature;BMP_pressure;BME280_temperature;BME280_humidity;BME280_pressure;Samples;Min_cycle;Max_cycle;Signal;HPM_P1;HPM_P2
2022/06/23 00:01:34;;;;;;;14.07;8.40;;;;;;;;;;5003163;28;20238;-72
2022/06/23 00:04:00;;;;;;;11.73;8.23;;;;;;;;;;5005044;28;20219;-71
2022/06/23 00:06:33;;;;;;;14.70;9.63;;;;;;;;;;5003422;28;20598;-71
2022/06/23 00:09:02;;;;;;;15.13;10.10;;;;;;;;;;4986262;28;20687;-71
2022/06/23 00:11:28;;;;;;;14.90;9.20;;;;;;;;;;4987188;28;20246;-71
2022/06/23 00:14:03;;;;;;;14.83;9.43;;;;;;;;;;5003973;28;20564;-70
2022/06/23 00:16:30;;;;;;;15.30;9.27;;;;;;;;;;4985632;28;20237;-71
2022/06/23 00:19:14;;;;;;;14.47;9.53;;;;;;;;;;5003635;28;20431;-71
2022/06/23 00:21:43;;;;;;;14.80;9.83;;;;;;;;;;4984742;28;20227;-71
2022/06/23 00:24:28;;;;;;;15.17;10.00;;;;;;;;;;4989963;28;20231;-71
2022/06/23 00:26:54;;;;;;;11.13;9.07;;;;;;;;;;4984871;28;21039;-71
2022/06/23 00:29:39;;;;;;;12.63;8.33;;;;;;;;;;4989821;28;20324;-71
2022/06/23 00:32:06;;;;;;;17.90;10.40;;;;;;;;;;5002909;28;20230;-71
2022/06/23 00:34:36;;;;;;;14.73;10.10;;;;;;;;;;4979169;28;214388;-71
2022/06/23 00:37:03;;;;;;;15.20;9.80;;;;;;;;;;5003380;28;20231;-71
2022/06/23 00:39:30;;;;;;;13.03;9.37;;;;;;;;;;5005232;28;20233;-71
2022/06/23 00:41:57;;;;;;;19.40;9.83;;;;;;;;;;4987692;28;20230;-71
2022/06/23 00:44:59;;;;;;;14.37;9.40;;;;;;;;;;5005107;28;20318;-71
2022/06/23 00:47:46;;;;;;;14.60;10.23;;;;;;;;;;4962039;28;20227;-71
2022/06/23 00:50:21;;;;;;;15.07;10.73;;;;;;;;;;4998108;28;20242;-71
2022/06/23 00:52:49;;;;;;;15.13;10.10;;;;;;;;;;4984946;28;20227;-71
2022/06/23 00:55:26;;;;;;;15.40;10.17;;;;;;;;;;4984960;28;20245;-71
2022/06/23 00:57:54;;;;;;;27.83;11.47;;;;;;;;;;4985063;28;20226;-71
2022/06/23 01:00:21;;;;;;;20.53;9.70;;;;;;;;;;4983226;28;20229;-72
2022/06/23 01:02:56;;;;;;;12.43;9.37;;;;;;;;;;4999757;28;20234;-71
2022/06/23 01:05:23;;;;;;;13.50;9.13;;;;;;;;;;4969488;28;20586;-72
2022/06/23 01:08:03;;;;;;;12.40;8.80;;;;;;;;;;5003969;28;20231;-71
2022/06/23 01:10:29;;;;;;;14.80;8.10;;;;;;;;;;4977797;28;215158;-71
2022/06/23 01:13:10;;;;;;;13.00;8.40;;;;;;;;;;5001917;28;20261;-72
2022/06/23 01:15:56;;;;;;;11.43;7.90;;;;;;;;;;4966152;28;20223;-71
2022/06/23 01:18:26;;;;;;;8.97;6.57;;;;;;;;;;4964861;28;20254;-71
2022/06/23 01:21:04;;;;;;;11.97;8.70;;;;;;;;;;4981612;28;20231;-71
2022/06/23 01:23:32;;;;;;;12.27;8.20;;;;;;;;;;4984825;28;20225;-71
2022/06/23 01:26:17;;;;;;;12.50;7.93;;;;;;;;;;4984151;28;20227;-71
2022/06/23 01:28:44;;;;;;;12.57;7.80;;;;;;;;;;5002977;28;20238;-71
2022/06/23 01:31:13;;;;;;;14.60;8.83;;;;;;;;;;4979290;28;20258;-71
2022/06/23 01:33:40;;;;;;;10.97;7.40;;;;;;;;;;5003385;28;20223;-71
2022/06/23 01:36:07;;;;;;;11.57;8.17;;;;;;;;;;5001926;28;20270;-71
2022/06/23 01:38:52;;;;;;;13.80;8.70;;;;;;;;;;5003575;28;20231;-71
2022/06/23 01:41:29;;;;;;;13.17;8.87;;;;;;;;;;4983730;28;20234;-71
2022/06/23 01:43:59;;;;;;;15.43;8.17;;;;;;;;;;4965185;28;20235;-71
2022/06/23 01:46:43;;;;;;;13.77;8.03;;;;;;;;;;5002978;28;20597;-71
2022/06/23 01:49:26;;;;;;;12.10;7.40;;;;;;;;;;5001449;28;20226;-71
2022/06/23 01:51:54;;;;;;;11.97;8.13;;;;;;;;;;5002711;28;20258;-71
2022/06/23 01:54:21;;;;;;;16.43;9.80;;;;;;;;;;5001027;28;20705;-71
2022/06/23 01:57:06;;;;;;;15.07;10.27;;;;;;;;;;5003389;28;20242;-71
2022/06/23 01:59:39;;;;;;;12.70;9.10;;;;;;;;;;4999253;28;20318;-71
2022/06/23 02:02:11;;;;;;;12.57;9.23;;;;;;;;;;5001157;28;20231;-72
2022/06/23 02:04:44;;;;;;;16.77;10.23;;;;;;;;;;4988178;28;20234;-72
2022/06/23 02:07:15;;;;;;;19.97;9.17;;;;;;;;;;5001670;28;20223;-72
2022/06/23 02:09:44;;;;;;;13.00;8.77;;;;;;;;;;4987547;28;20694;-72
2022/06/23 02:12:20;;;;;;;13.33;8.63;;;;;;;;;;5001204;28;20230;-72
2022/06/23 02:14:55;;;;;;;14.87;9.23;;;;;;;;;;5001575;28;20374;-72
2022/06/23 02:17:28;;;;;;;13.20;8.80;;;;;;;;;;4968068;28;20572;-71
2022/06/23 02:20:24;;;;;;;12.20;7.90;;;;;;;;;;5001850;28;20228;-71
2022/06/23 02:22:56;;;;;;;14.00;8.33;;;;;;;;;;4975381;28;20222;-71
2022/06/23 02:25:28;;;;;;;10.93;8.13;;;;;;;;;;4987905;28;20710;-72
2022/06/23 02:28:33;;;;;;;12.67;8.77;;;;;;;;;;4999357;28;20226;-71
2022/06/23 02:31:04;;;;;;;14.27;8.33;;;;;;;;;;4915773;29;20233;-72
2022/06/23 02:33:32;;;;;;;21.57;9.53;;;;;;;;;;4920032;29;20702;-72
2022/06/23 02:36:00;;;;;;;11.77;8.33;;;;;;;;;;4951535;28;20306;-72
2022/06/23 02:38:33;;;;;;;10.60;8.20;;;;;;;;;;4988417;28;20219;-72
2022/06/23 02:41:20;;;;;;;11.70;7.37;;;;;;;;;;4984940;28;20228;-72
2022/06/23 02:43:49;;;;;;;9.70;7.13;;;;;;;;;;5000541;28;20226;-72
2022/06/23 02:46:28;;;;;;;10.10;7.57;;;;;;;;;;5004399;28;20258;-72
2022/06/23 02:48:57;;;;;;;11.77;8.23;;;;;;;;;;4967106;28;20223;-72
2022/06/23 02:51:24;;;;;;;12.87;8.17;;;;;;;;;;4984933;28;20310;-72
2022/06/23 02:54:09;;;;;;;10.57;8.03;;;;;;;;;;4986774;28;20231;-72
2022/06/23 02:56:48;;;;;;;12.37;8.03;;;;;;;;;;5004730;28;20231;-72
2022/06/23 02:59:27;;;;;;;12.27;8.63;;;;;;;;;;4985316;28;20602;-72
2022/06/23 03:02:13;;;;;;;11.23;8.27;;;;;;;;;;4988299;28;20226;-72
2022/06/23 03:04:51;;;;;;;10.77;8.67;;;;;;;;;;5005380;28;20223;-72
2022/06/23 03:07:36;;;;;;;9.97;7.57;;;;;;;;;;4985415;28;20313;-72
2022/06/23 03:10:06;;;;;;;12.60;8.80;;;;;;;;;;5006246;28;20231;-72
2022/06/23 03:12:40;;;;;;;13.50;9.50;;;;;;;;;;5001728;28;20219;-72
2022/06/23 03:15:11;;;;;;;11.43;8.90;;;;;;;;;;5004042;28;20223;-72
2022/06/23 03:17:41;;;;;;;11.53;8.73;;;;;;;;;;4986470;28;20219;-72
2022/06/23 03:20:13;;;;;;;10.90;8.10;;;;;;;;;;4996051;28;20235;-72
2022/06/23 03:22:47;;;;;;;10.20;8.00;;;;;;;;;;4977157;28;215838;-72
2022/06/23 03:25:19;;;;;;;10.50;8.37;;;;;;;;;;4986064;28;20226;-72
2022/06/23 03:28:05;;;;;;;15.23;9.80;;;;;;;;;;4974782;28;20682;-72
2022/06/23 03:30:34;;;;;;;14.53;9.63;;;;;;;;;;4878429;28;20230;-72
2022/06/23 03:33:24;;;;;;;14.73;9.60;;;;;;;;;;4933825;28;218143;-72
2022/06/23 03:36:01;;;;;;;11.53;8.60;;;;;;;;;;4993125;28;219805;-72
2022/06/23 03:41:37;;;;;;;11.33;9.17;;;;;;;;;;4916002;28;214074;-70
2022/06/23 03:44:06;;;;;;;13.37;9.47;;;;;;;;;;4934125;28;228546;-71
2022/06/23 03:46:44;;;;;;;13.57;10.00;;;;;;;;;;4979919;28;20248;-73
2022/06/23 03:49:15;;;;;;;13.53;9.83;;;;;;;;;;4928830;28;217857;-71
2022/06/23 03:51:47;;;;;;;14.53;10.23;;;;;;;;;;4905276;28;217971;-71
2022/06/23 03:54:44;;;;;;;17.53;11.70;;;;;;;;;;4903164;28;34950;-70
2022/06/23 03:57:14;;;;;;;17.10;11.67;;;;;;;;;;4946088;28;239799;-69
2022/06/23 04:00:02;;;;;;;18.87;12.70;;;;;;;;;;4946705;28;223475;-73
2022/06/23 04:02:30;;;;;;;17.20;11.00;;;;;;;;;;4947824;28;20230;-69
2022/06/23 04:05:04;;;;;;;13.40;9.70;;;;;;;;;;4961085;28;20637;-69
2022/06/23 04:07:32;;;;;;;19.30;11.63;;;;;;;;;;4967898;28;221998;-72
2022/06/23 04:09:59;;;;;;;21.37;12.10;;;;;;;;;;4965128;28;20899;-73
2022/06/23 04:12:34;;;;;;;14.00;10.57;;;;;;;;;;4895814;28;229784;-72
2022/06/23 04:15:05;;;;;;;14.30;10.80;;;;;;;;;;4924420;28;231599;-73
2022/06/23 04:17:32;;;;;;;15.50;10.53;;;;;;;;;;4926588;28;213802;-69
2022/06/23 04:20:01;;;;;;;17.07;10.50;;;;;;;;;;4990767;28;20239;-71
2022/06/23 04:22:35;;;;;;;16.33;11.23;;;;;;;;;;4990555;28;22178;-71
2022/06/23 04:25:02;;;;;;;16.60;11.23;;;;;;;;;;4974648;28;24204;-71
2022/06/23 04:27:31;;;;;;;17.13;10.90;;;;;;;;;;4961910;28;221743;-70
2022/06/23 04:29:58;;;;;;;15.93;10.60;;;;;;;;;;4955457;28;24210;-71
2022/06/23 04:32:26;;;;;;;14.50;9.63;;;;;;;;;;4903241;28;46818;-70
2022/06/23 04:34:59;;;;;;;15.10;10.17;;;;;;;;;;4963559;28;57272;-70
2022/06/23 04:37:28;;;;;;;12.73;9.13;;;;;;;;;;4969040;28;114706;-71
2022/06/23 04:39:59;;;;;;;12.57;9.13;;;;;;;;;;4527745;28;5088229;-69
2022/06/23 04:42:26;;;;;;;14.73;9.53;;;;;;;;;;4975189;28;20223;-70
2022/06/23 04:44:55;;;;;;;13.57;9.97;;;;;;;;;;4915242;28;31776;-69
2022/06/23 04:47:23;;;;;;;13.90;9.03;;;;;;;;;;4964146;28;22906;-69
2022/06/23 04:49:54;;;;;;;15.50;10.93;;;;;;;;;;4965309;28;20239;-68
2022/06/23 04:52:24;;;;;;;16.00;10.80;;;;;;;;;;4873025;28;25029;-69
2022/06/23 04:55:08;;;;;;;15.77;10.10;;;;;;;;;;4821433;28;5088450;-69
2022/06/23 04:57:54;;;;;;;14.80;10.60;;;;;;;;;;4965500;28;20262;-68
2022/06/23 05:00:28;;;;;;;19.37;10.23;;;;;;;;;;4917378;28;20233;-69
2022/06/23 05:02:59;;;;;;;18.00;10.37;;;;;;;;;;4936355;28;236152;-69
2022/06/23 05:05:31;;;;;;;16.27;10.63;;;;;;;;;;4954307;28;29759;-69
2022/06/23 05:08:01;;;;;;;16.00;11.30;;;;;;;;;;4924327;28;20234;-70
2022/06/23 05:10:48;;;;;;;17.63;11.33;;;;;;;;;;4991923;28;30948;-69
2022/06/23 05:13:17;;;;;;;21.40;11.20;;;;;;;;;;4679422;28;5087716;-70
2022/06/23 05:15:48;;;;;;;16.68;10.30;;;;;;;;;;4809319;28;5098148;-70
2022/06/23 05:18:15;;;;;;;14.27;9.83;;;;;;;;;;4953981;28;31868;-69
2022/06/23 05:20:52;;;;;;;15.87;9.03;;;;;;;;;;4935783;28;20249;-68
2022/06/23 05:23:21;;;;;;;15.60;9.17;;;;;;;;;;4589922;28;5090853;-71
2022/06/23 05:25:48;;;;;;;12.77;7.77;;;;;;;;;;4622217;28;5091646;-71
2022/06/23 05:28:17;;;;;;;13.40;8.30;;;;;;;;;;4926122;28;24094;-70
2022/06/23 05:31:04;;;;;;;9.60;7.00;;;;;;;;;;4913872;28;25823;-70
2022/06/23 05:33:33;;;;;;;10.93;7.10;;;;;;;;;;4924465;28;45107;-71
2022/06/23 05:36:07;;;;;;;9.13;6.53;;;;;;;;;;4986945;28;20346;-69
2022/06/23 05:38:37;;;;;;;12.10;6.67;;;;;;;;;;4790260;28;5086575;-68
2022/06/23 05:41:12;;;;;;;9.63;6.57;;;;;;;;;;4813016;28;5097003;-69
2022/06/23 05:43:39;;;;;;;9.03;5.77;;;;;;;;;;4963654;28;20249;-69
2022/06/23 05:46:07;;;;;;;10.33;6.20;;;;;;;;;;4715553;28;5092535;-69
2022/06/23 05:48:42;;;;;;;15.87;9.70;;;;;;;;;;4899728;28;20227;-72
2022/06/23 05:51:16;;;;;;;14.53;8.70;;;;;;;;;;4791748;28;5090779;-70
2022/06/23 05:53:48;;;;;;;12.57;7.20;;;;;;;;;;4677289;28;5095466;-70
2022/06/23 05:56:20;;;;;;;9.53;5.63;;;;;;;;;;4792625;28;5090323;-70
2022/06/23 05:58:58;;;;;;;7.88;5.35;;;;;;;;;;4640584;28;5094374;-70
2022/06/23 06:02:03;;;;;;;8.47;5.53;;;;;;;;;;4760148;28;5089330;-69
2022/06/23 06:04:32;;;;;;;11.97;6.40;;;;;;;;;;4864986;29;22294;-72
2022/06/23 06:07:00;;;;;;;8.40;5.10;;;;;;;;;;4846316;29;20238;-70
2022/06/23 06:09:35;;;;;;;8.53;5.03;;;;;;;;;;4919341;28;20358;-69
2022/06/23 06:12:21;;;;;;;11.87;5.50;;;;;;;;;;4759384;28;4449496;-69
2022/06/23 06:14:49;;;;;;;10.43;5.37;;;;;;;;;;4992059;28;20231;-69
2022/06/23 06:17:18;;;;;;;8.97;5.33;;;;;;;;;;4708726;28;3987881;-70
2022/06/23 06:19:44;;;;;;;7.33;4.70;;;;;;;;;;4888876;28;20235;-70
2022/06/23 06:22:31;;;;;;;8.03;4.90;;;;;;;;;;4931015;28;20237;-70
2022/06/23 06:24:59;;;;;;;7.37;5.20;;;;;;;;;;4906253;28;39280;-70
2022/06/23 06:27:25;;;;;;;10.60;4.80;;;;;;;;;;4851560;28;3586190;-70
2022/06/23 06:29:53;;;;;;;6.20;4.43;;;;;;;;;;4965245;28;27899;-69
2022/06/23 06:32:33;;;;;;;9.97;5.37;;;;;;;;;;4973343;28;20239;-70
2022/06/23 06:35:05;;;;;;;8.23;4.80;;;;;;;;;;4970462;28;20273;-69
2022/06/23 06:37:38;;;;;;;6.63;2.60;;;;;;;;;;4987812;28;20235;-69
2022/06/23 06:40:05;;;;;;;10.03;4.40;;;;;;;;;;4930651;28;27095;-69
2022/06/23 06:42:33;;;;;;;6.70;4.30;;;;;;;;;;4637293;28;3592440;-69
2022/06/23 06:45:04;;;;;;;6.87;4.47;;;;;;;;;;4964441;28;20262;-68
2022/06/23 06:47:34;;;;;;;7.43;4.30;;;;;;;;;;4843535;28;20358;-71
2022/06/23 06:50:16;;;;;;;9.87;4.03;;;;;;;;;;4916518;28;22343;-69
2022/06/23 06:52:44;;;;;;;6.50;3.63;;;;;;;;;;4925703;28;25696;-69
2022/06/23 06:55:15;;;;;;;7.83;3.80;;;;;;;;;;4914645;28;23814;-69
2022/06/23 06:57:49;;;;;;;6.63;3.63;;;;;;;;;;4954034;28;20223;-70
2022/06/23 07:00:16;;;;;;;11.57;3.53;;;;;;;;;;4963432;28;20234;-69
2022/06/23 07:02:45;;;;;;;6.67;3.53;;;;;;;;;;4971758;28;218420;-69
2022/06/23 07:05:19;;;;;;;6.57;3.50;;;;;;;;;;4955903;28;221998;-69
2022/06/23 07:07:47;;;;;;;9.60;3.50;;;;;;;;;;4991464;28;20231;-68
2022/06/23 07:10:21;;;;;;;4.97;2.70;;;;;;;;;;4986665;28;216821;-69
2022/06/23 07:12:50;;;;;;;8.07;3.20;;;;;;;;;;4967904;28;20233;-69
2022/06/23 07:15:25;;;;;;;5.80;2.63;;;;;;;;;;4980316;28;20239;-69
2022/06/23 07:17:55;;;;;;;6.20;2.87;;;;;;;;;;4980264;28;20237;-68
2022/06/23 07:20:28;;;;;;;4.80;3.10;;;;;;;;;;4976347;28;22371;-68
2022/06/23 07:23:11;;;;;;;6.40;3.00;;;;;;;;;;4973182;28;31527;-67
2022/06/23 07:25:39;;;;;;;6.77;2.90;;;;;;;;;;4960919;28;20235;-69
2022/06/23 07:28:09;;;;;;;6.73;3.00;;;;;;;;;;4939886;28;20254;-68
2022/06/23 07:30:40;;;;;;;10.40;6.13;;;;;;;;;;4966194;28;221563;-69
2022/06/23 07:33:10;;;;;;;10.77;3.40;;;;;;;;;;4966945;28;20235;-67
2022/06/23 07:35:49;;;;;;;11.00;2.90;;;;;;;;;;4992405;28;20225;-68
2022/06/23 07:38:23;;;;;;;6.67;2.90;;;;;;;;;;4992476;28;28814;-67
2022/06/23 07:40:58;;;;;;;5.63;2.50;;;;;;;;;;4995227;28;20235;-68
2022/06/23 07:43:27;;;;;;;5.87;2.47;;;;;;;;;;4964034;28;45927;-69
2022/06/23 07:45:54;;;;;;;5.40;2.63;;;;;;;;;;4911588;28;20259;-68
2022/06/23 07:48:21;;;;;;;5.73;2.70;;;;;;;;;;4902293;28;20969;-68
2022/06/23 07:50:48;;;;;;;3.37;2.13;;;;;;;;;;4933053;28;20251;-68
2022/06/23 07:53:20;;;;;;;5.53;2.10;;;;;;;;;;4971122;28;20718;-68
2022/06/23 07:55:47;;;;;;;4.97;2.10;;;;;;;;;;4947349;28;20232;-68
2022/06/23 07:58:15;;;;;;;6.27;2.00;;;;;;;;;;4971344;28;20230;-68
2022/06/23 08:00:42;;;;;;;4.00;1.93;;;;;;;;;;4962334;28;20321;-68
2022/06/23 08:03:13;;;;;;;3.57;2.00;;;;;;;;;;4967709;28;20937;-68
2022/06/23 08:05:41;;;;;;;3.10;2.00;;;;;;;;;;4975029;28;223834;-70
2022/06/23 08:08:12;;;;;;;3.10;2.17;;;;;;;;;;4944269;28;213854;-70
2022/06/23 08:10:39;;;;;;;2.17;1.70;;;;;;;;;;4975088;28;20232;-68
2022/06/23 08:13:06;;;;;;;2.57;1.90;;;;;;;;;;4940284;28;20291;-68
2022/06/23 08:18:36;;;;;;;3.50;1.90;;;;;;;;;;4937883;28;20646;-69
2022/06/23 08:21:05;;;;;;;3.90;1.87;;;;;;;;;;4940002;28;60059;-68
2022/06/23 08:23:34;;;;;;;4.50;2.10;;;;;;;;;;4956059;28;25678;-68
2022/06/23 08:26:01;;;;;;;3.60;2.10;;;;;;;;;;4973163;28;20313;-69
2022/06/23 08:28:28;;;;;;;2.50;1.90;;;;;;;;;;4974283;28;231153;-70
2022/06/23 08:30:55;;;;;;;2.70;1.90;;;;;;;;;;4895948;28;20240;-71
2022/06/23 08:33:21;;;;;;;5.20;2.40;;;;;;;;;;4939337;28;33981;-70
2022/06/23 08:35:49;;;;;;;4.60;2.07;;;;;;;;;;4959873;28;20378;-68
2022/06/23 08:38:16;;;;;;;3.63;2.13;;;;;;;;;;4977097;28;20316;-69
2022/06/23 08:41:02;;;;;;;3.10;2.40;;;;;;;;;;4979368;28;23439;-68
2022/06/23 08:43:38;;;;;;;4.77;2.00;;;;;;;;;;4954802;28;24553;-69
2022/06/23 08:46:10;;;;;;;3.77;2.17;;;;;;;;;;4933120;28;20379;-70
2022/06/23 08:48:40;;;;;;;4.60;2.20;;;;;;;;;;4960359;28;20243;-70
2022/06/23 08:51:07;;;;;;;2.97;2.00;;;;;;;;;;4975151;28;219118;-68
2022/06/23 08:53:34;;;;;;;2.20;1.73;;;;;;;;;;4976056;28;20232;-70
2022/06/23 08:56:20;;;;;;;5.47;2.57;;;;;;;;;;4981766;28;20709;-69
2022/06/23 08:58:47;;;;;;;8.20;2.43;;;;;;;;;;4919419;28;217566;-69
2022/06/23 09:01:34;;;;;;;3.53;1.90;;;;;;;;;;4981734;28;20234;-70
2022/06/23 09:04:20;;;;;;;4.93;1.90;;;;;;;;;;4979187;28;20231;-69
2022/06/23 09:06:52;;;;;;;3.63;1.87;;;;;;;;;;4939728;28;20462;-71
2022/06/23 09:09:39;;;;;;;3.00;1.80;;;;;;;;;;4981477;28;20290;-71
2022/06/23 09:12:15;;;;;;;3.90;1.60;;;;;;;;;;4970833;28;20275;-70
2022/06/23 09:14:48;;;;;;;3.80;2.10;;;;;;;;;;4981555;28;20906;-70
2022/06/23 09:17:35;;;;;;;3.97;3.10;;;;;;;;;;4997036;28;20227;-70
2022/06/23 09:20:07;;;;;;;6.60;3.30;;;;;;;;;;4984478;28;20231;-69
2022/06/23 09:22:38;;;;;;;4.50;3.17;;;;;;;;;;4963574;28;20236;-69
2022/06/23 09:25:05;;;;;;;5.17;4.00;;;;;;;;;;4971208;28;20224;-70
2022/06/23 09:27:37;;;;;;;5.23;3.70;;;;;;;;;;4981800;28;20424;-70
2022/06/23 09:30:22;;;;;;;7.80;3.37;;;;;;;;;;4981956;28;20766;-69
2022/06/23 09:32:55;;;;;;;5.13;3.17;;;;;;;;;;4983701;28;20230;-69
2022/06/23 09:35:41;;;;;;;4.03;2.93;;;;;;;;;;4983556;28;20232;-69
2022/06/23 09:38:07;;;;;;;7.10;3.37;;;;;;;;;;4983535;28;20243;-69
2022/06/23 09:40:52;;;;;;;6.87;3.50;;;;;;;;;;4982470;28;20231;-70
2022/06/23 09:43:39;;;;;;;6.70;3.87;;;;;;;;;;4984170;28;20228;-70
2022/06/23 09:46:13;;;;;;;5.03;3.40;;;;;;;;;;4935135;28;20238;-69
2022/06/23 09:48:46;;;;;;;7.03;3.63;;;;;;;;;;4982204;28;20815;-69
2022/06/23 09:51:40;;;;;;;6.40;4.10;;;;;;;;;;4967843;28;20693;-69
2022/06/23 09:54:09;;;;;;;6.80;3.30;;;;;;;;;;4969428;28;20752;-69
2022/06/23 09:56:57;;;;;;;6.87;4.23;;;;;;;;;;5001207;28;20238;-70
2022/06/23 09:59:27;;;;;;;5.73;3.67;;;;;;;;;;4984329;28;20241;-70
2022/06/23 10:01:56;;;;;;;6.13;3.80;;;;;;;;;;5003365;28;20230;-70
2022/06/23 10:04:27;;;;;;;7.13;3.80;;;;;;;;;;4957360;28;20704;-70
2022/06/23 10:07:00;;;;;;;8.60;3.77;;;;;;;;;;4983465;28;20223;-70
2022/06/23 10:09:32;;;;;;;13.00;4.40;;;;;;;;;;4955938;28;20235;-68
2022/06/23 10:12:01;;;;;;;5.10;3.90;;;;;;;;;;4995254;28;20315;-69
2022/06/23 10:14:40;;;;;;;5.63;3.67;;;;;;;;;;4997516;28;20231;-69
2022/06/23 10:17:22;;;;;;;7.80;4.23;;;;;;;;;;4983528;28;20285;-69
2022/06/23 10:20:07;;;;;;;8.30;4.37;;;;;;;;;;5002016;28;20231;-69
2022/06/23 10:22:38;;;;;;;8.17;4.40;;;;;;;;;;5000642;28;20230;-69
2022/06/23 10:25:30;;;;;;;7.27;4.03;;;;;;;;;;5001161;28;20229;-69
2022/06/23 10:27:57;;;;;;;6.57;4.33;;;;;;;;;;4983758;28;20719;-70
2022/06/23 10:30:38;;;;;;;8.10;4.33;;;;;;;;;;5004070;28;20227;-69
2022/06/23 10:33:23;;;;;;;6.43;4.30;;;;;;;;;;4985950;28;20293;-70
2022/06/23 10:35:53;;;;;;;6.27;4.30;;;;;;;;;;4999556;28;20226;-70
2022/06/23 10:38:34;;;;;;;9.00;4.40;;;;;;;;;;5000718;28;20237;-70
2022/06/23 10:41:04;;;;;;;6.60;4.40;;;;;;;;;;4984412;28;20235;-70
2022/06/23 10:43:30;;;;;;;9.40;4.53;;;;;;;;;;4999021;28;20234;-69
2022/06/23 10:46:01;;;;;;;7.20;4.60;;;;;;;;;;5005362;28;20238;-69
2022/06/23 10:48:47;;;;;;;7.73;4.30;;;;;;;;;;4987630;28;20223;-69
2022/06/23 10:51:14;;;;;;;8.83;4.60;;;;;;;;;;4989282;28;20230;-69
2022/06/23 10:53:41;;;;;;;7.73;4.13;;;;;;;;;;4959483;28;219322;-69
2022/06/23 10:56:10;;;;;;;11.73;4.40;;;;;;;;;;4985828;28;20226;-69
2022/06/23 10:58:59;;;;;;;8.30;4.47;;;;;;;;;;4992646;28;216170;-70
2022/06/23 11:01:45;;;;;;;9.83;4.73;;;;;;;;;;4996678;28;20227;-69
2022/06/23 11:04:18;;;;;;;7.67;4.40;;;;;;;;;;4931057;28;214982;-69
2022/06/23 11:07:06;;;;;;;7.90;4.30;;;;;;;;;;4981331;28;20232;-69
2022/06/23 11:09:47;;;;;;;6.57;4.53;;;;;;;;;;4959126;28;20707;-69
2022/06/23 11:12:33;;;;;;;6.60;4.00;;;;;;;;;;4995076;28;20977;-70
2022/06/23 11:15:03;;;;;;;6.67;4.30;;;;;;;;;;4990067;28;20266;-69
2022/06/23 11:17:38;;;;;;;8.77;4.17;;;;;;;;;;4985139;28;20235;-68
2022/06/23 11:20:09;;;;;;;6.00;3.97;;;;;;;;;;4992658;28;20306;-67
2022/06/23 11:22:35;;;;;;;8.27;4.00;;;;;;;;;;5002703;28;20736;-67
2022/06/23 11:25:17;;;;;;;10.70;4.80;;;;;;;;;;5006348;28;20238;-68
2022/06/23 11:28:04;;;;;;;7.73;4.77;;;;;;;;;;4995008;28;20238;-67
2022/06/23 11:30:40;;;;;;;12.70;4.63;;;;;;;;;;5003533;28;20266;-67
2022/06/23 11:33:18;;;;;;;10.13;4.63;;;;;;;;;;4986375;28;20243;-68
2022/06/23 11:35:50;;;;;;;10.57;4.63;;;;;;;;;;4998368;28;20223;-67
2022/06/23 11:38:17;;;;;;;6.90;5.00;;;;;;;;;;5002350;28;20227;-67
2022/06/23 11:40:47;;;;;;;7.20;4.73;;;;;;;;;;4994130;28;20243;-67
2022/06/23 11:43:23;;;;;;;8.57;4.60;;;;;;;;;;5001834;28;20227;-67
2022/06/23 11:46:02;;;;;;;6.13;4.30;;;;;;;;;;5003657;28;20231;-67
2022/06/23 11:48:33;;;;;;;6.73;4.10;;;;;;;;;;5003314;28;20234;-67
2022/06/23 11:51:04;;;;;;;7.23;4.30;;;;;;;;;;5008378;28;20310;-67
2022/06/23 11:53:44;;;;;;;5.37;4.17;;;;;;;;;;4964245;28;21010;-67
2022/06/23 11:56:17;;;;;;;7.23;4.60;;;;;;;;;;4971210;28;20238;-67
2022/06/23 11:59:04;;;;;;;7.50;4.00;;;;;;;;;;4983171;28;20224;-67
2022/06/23 12:01:30;;;;;;;8.47;3.87;;;;;;;;;;4977971;28;219706;-67
2022/06/23 12:04:16;;;;;;;8.77;4.17;;;;;;;;;;4979739;28;22402;-67
2022/06/23 12:07:12;;;;;;;9.17;4.23;;;;;;;;;;4985143;28;20324;-67
2022/06/23 12:09:39;;;;;;;6.03;4.03;;;;;;;;;;4940407;28;20236;-67
2022/06/23 12:12:06;;;;;;;6.20;4.40;;;;;;;;;;4986809;28;20228;-67
2022/06/23 12:14:33;;;;;;;7.57;4.10;;;;;;;;;;4968181;28;26913;-70
2022/06/23 12:17:04;;;;;;;6.07;4.30;;;;;;;;;;4984819;28;20228;-67
2022/06/23 12:19:52;;;;;;;7.63;4.43;;;;;;;;;;4971519;28;20778;-66
2022/06/23 12:22:24;;;;;;;6.73;4.40;;;;;;;;;;4976268;28;20228;-66
2022/06/23 12:24:51;;;;;;;6.63;4.57;;;;;;;;;;4972622;28;228797;-66
2022/06/23 12:27:23;;;;;;;8.03;4.70;;;;;;;;;;4970842;28;20224;-67
2022/06/23 12:29:55;;;;;;;5.50;4.30;;;;;;;;;;4981554;28;20224;-67
2022/06/23 12:32:25;;;;;;;6.13;4.30;;;;;;;;;;4965232;28;20231;-68
2022/06/23 12:34:58;;;;;;;7.87;4.20;;;;;;;;;;4981138;28;21085;-68
2022/06/23 12:37:28;;;;;;;8.77;4.30;;;;;;;;;;4974438;28;20239;-67
2022/06/23 12:40:04;;;;;;;12.10;4.53;;;;;;;;;;4977187;28;20253;-66
2022/06/23 12:42:33;;;;;;;7.67;4.03;;;;;;;;;;4971954;28;21533;-66
2022/06/23 12:45:08;;;;;;;6.93;4.27;;;;;;;;;;4969251;28;214094;-67
2022/06/23 12:47:48;;;;;;;7.57;4.30;;;;;;;;;;4974335;28;20695;-67
2022/06/23 12:50:33;;;;;;;6.33;3.90;;;;;;;;;;4974570;28;20227;-67
2022/06/23 12:53:00;;;;;;;5.23;4.03;;;;;;;;;;4974685;28;213933;-67
2022/06/23 12:55:45;;;;;;;7.80;4.70;;;;;;;;;;4999762;28;20337;-67
2022/06/23 12:58:31;;;;;;;5.10;3.77;;;;;;;;;;5000271;28;20223;-69
2022/06/23 13:01:04;;;;;;;6.83;4.00;;;;;;;;;;4983125;28;20231;-72
2022/06/23 13:03:50;;;;;;;8.67;4.13;;;;;;;;;;4981034;28;24015;-71
2022/06/23 13:06:19;;;;;;;10.73;3.70;;;;;;;;;;4998150;28;20239;-67
2022/06/23 13:09:22;;;;;;;6.57;3.57;;;;;;;;;;4989698;28;213413;-68
2022/06/23 13:11:55;;;;;;;25.50;4.90;;;;;;;;;;4978229;28;214577;-71
2022/06/23 13:14:24;;;;;;;6.60;4.10;;;;;;;;;;4966994;28;20679;-69
2022/06/23 13:17:01;;;;;;;7.83;4.87;;;;;;;;;;5002929;28;20226;-69
2022/06/23 13:20:20;;;;;;;6.53;3.73;;;;;;;;;;4971713;28;20675;-69
2022/06/23 13:22:47;;;;;;;5.20;3.23;;;;;;;;;;4913705;28;20228;-68
2022/06/23 13:25:20;;;;;;;10.77;4.73;;;;;;;;;;4990627;28;20238;-69
2022/06/23 13:27:49;;;;;;;7.37;4.30;;;;;;;;;;4984646;28;20226;-68
2022/06/23 13:30:39;;;;;;;10.93;3.97;;;;;;;;;;5003060;28;20238;-68
2022/06/23 13:33:10;;;;;;;8.53;3.53;;;;;;;;;;4969741;28;20253;-68
2022/06/23 13:35:42;;;;;;;6.63;4.03;;;;;;;;;;4970602;28;20295;-68
2022/06/23 13:38:28;;;;;;;6.50;3.60;;;;;;;;;;5001625;28;20235;-68
2022/06/23 13:41:02;;;;;;;7.23;3.47;;;;;;;;;;5003095;28;20241;-68
2022/06/23 13:43:29;;;;;;;6.70;4.73;;;;;;;;;;4983850;28;20229;-69
2022/06/23 13:46:04;;;;;;;10.73;5.67;;;;;;;;;;4982286;28;20242;-68
2022/06/23 13:48:49;;;;;;;6.73;5.00;;;;;;;;;;4983967;28;20268;-68
2022/06/23 13:51:34;;;;;;;6.83;3.50;;;;;;;;;;4973279;28;20273;-67
2022/06/23 13:54:03;;;;;;;7.00;3.30;;;;;;;;;;4983199;28;20753;-68
2022/06/23 13:56:34;;;;;;;4.80;2.83;;;;;;;;;;5002569;28;28936;-68
2022/06/23 13:59:01;;;;;;;9.40;3.60;;;;;;;;;;5001812;28;20249;-68
2022/06/23 14:01:27;;;;;;;6.63;3.30;;;;;;;;;;4986205;28;20254;-67
2022/06/23 14:04:09;;;;;;;6.93;3.37;;;;;;;;;;4985610;28;20242;-69
2022/06/23 14:06:39;;;;;;;9.00;4.50;;;;;;;;;;5001533;28;20594;-67
2022/06/23 14:09:13;;;;;;;6.03;3.50;;;;;;;;;;5000973;28;20223;-68
2022/06/23 14:11:42;;;;;;;5.03;3.50;;;;;;;;;;4969719;28;20250;-68
2022/06/23 14:14:12;;;;;;;6.23;3.40;;;;;;;;;;4969577;28;20250;-68
2022/06/23 14:16:57;;;;;;;9.07;3.13;;;;;;;;;;5001551;28;20238;-68
2022/06/23 14:19:29;;;;;;;6.10;3.63;;;;;;;;;;5002200;28;20241;-68
2022/06/23 14:21:57;;;;;;;6.13;4.00;;;;;;;;;;5001204;28;20299;-68
2022/06/23 14:24:26;;;;;;;4.63;2.63;;;;;;;;;;5000537;28;20228;-69
2022/06/23 14:26:55;;;;;;;4.77;3.30;;;;;;;;;;4986782;28;20235;-68
2022/06/23 14:29:27;;;;;;;5.10;3.13;;;;;;;;;;4978275;28;20310;-68
2022/06/23 14:31:59;;;;;;;11.17;3.53;;;;;;;;;;4968584;28;20315;-69
2022/06/23 14:34:44;;;;;;;4.80;3.00;;;;;;;;;;5000203;28;20606;-68
2022/06/23 14:37:29;;;;;;;5.10;3.40;;;;;;;;;;4991892;28;20623;-68
2022/06/23 14:40:09;;;;;;;5.40;3.10;;;;;;;;;;4998067;28;20290;-72
2022/06/23 14:42:41;;;;;;;3.53;2.97;;;;;;;;;;4984012;28;20224;-69
2022/06/23 14:45:14;;;;;;;5.30;2.90;;;;;;;;;;4996109;28;20314;-69
2022/06/23 14:48:17;;;;;;;7.97;3.37;;;;;;;;;;4996971;28;20240;-68
2022/06/23 14:50:45;;;;;;;4.80;3.37;;;;;;;;;;5002070;28;20238;-68
2022/06/23 14:53:31;;;;;;;5.97;3.17;;;;;;;;;;4982997;28;20709;-71
2022/06/23 14:56:12;;;;;;;5.03;3.33;;;;;;;;;;5002795;28;20229;-69
2022/06/23 14:59:00;;;;;;;4.97;2.90;;;;;;;;;;4980142;28;20252;-68
2022/06/23 15:01:44;;;;;;;4.17;3.10;;;;;;;;;;4963818;28;20661;-70
2022/06/23 15:04:22;;;;;;;4.73;3.40;;;;;;;;;;5002294;28;20223;-69
2022/06/23 15:06:52;;;;;;;4.03;2.90;;;;;;;;;;4982776;28;20260;-69
2022/06/23 15:09:18;;;;;;;3.57;3.00;;;;;;;;;;4997969;28;20239;-70
2022/06/23 15:11:48;;;;;;;4.73;2.63;;;;;;;;;;4993575;28;20556;-69
2022/06/23 15:14:14;;;;;;;3.67;2.50;;;;;;;;;;4983577;28;20304;-70
2022/06/23 15:17:03;;;;;;;4.20;2.93;;;;;;;;;;5002444;28;20306;-69
2022/06/23 15:19:32;;;;;;;4.40;3.00;;;;;;;;;;4999185;28;20232;-69
2022/06/23 15:25:01;;;;;;;4.50;2.90;;;;;;;;;;4998003;28;20231;-69